Queen Of Nanaimo — VCNX — position and weather

sailwx.info

Track history (hours):
 
Tides and Currents Weather Stations Pressure Air Temp Water Temp Dewpoint Dewpoint Depression Visibility Wind Speed Wind Dir Waves Ship Positions

Queen Of Nanaimo

Last reported at 2015-Apr-01 23:33 UTC. Time now 2015-Apr-02 00:14 UTC.
Position N 48°51' W 123°20'.

Length 130 m; draft 4 m.

Type: Ship. MMSI: 316001254.

Date/timePositionNaut miles runAvg speedWind from/ knotsBaromVisibWave heightAir tempDewpointWater temp
2015-Apr-01 23:33N 48°51' W 123°20'3 0.7
2015-Apr-01 19:31N 48°48' W 123°19'4 4.0
2015-Apr-01 18:33N 48°52' W 123°21'8 8.0
2015-Apr-01 17:33N 48°58' W 123°13'4 4.3
2015-Apr-01 16:33N 49°00' W 123°08'10 9.9
2015-Apr-01 15:33N 48°53' W 123°18'3 2.4
2015-Apr-01 14:30N 48°51' W 123°20'3 3.5
2015-Apr-01 13:34N 48°50' W 123°25'1 0.1
2015-Apr-01 05:13N 48°51' W 123°26'5 7.7
2015-Apr-01 04:32N 48°48' W 123°19'5 4.9
2015-Apr-01 03:33N 48°53' W 123°19'9 9.1
2015-Apr-01 02:33N 48°59' W 123°09'1 1.4
2015-Apr-01 01:33N 49°00' W 123°08'1110.5
2015-Apr-01 00:33N 48°53' W 123°19'2 2.0
2015-Mar-31 23:33N 48°51' W 123°20'4 3.2
2015-Mar-31 22:26N 48°50' W 123°25'5 1.6
2015-Mar-31 19:33N 48°48' W 123°19'4 3.8
2015-Mar-31 18:33N 48°52' W 123°21'8 7.8
2015-Mar-31 17:33N 48°57' W 123°13'4 4.3
2015-Mar-31 16:34N 49°00' W 123°08'10 9.8
2015-Mar-31 15:33N 48°53' W 123°18'3 2.5
2015-Mar-31 14:29N 48°51' W 123°20'3 3.3
2015-Mar-31 13:30N 48°50' W 123°25'2 0.3
2015-Mar-31 06:27N 48°51' W 123°27'6 2.7
2015-Mar-31 04:23N 48°48' W 123°20'4 5.4
2015-Mar-31 03:33N 48°52' W 123°18'9 9.2
2015-Mar-31 02:34N 48°59' W 123°10'1 1.5
2015-Mar-31 01:33N 49°00' W 123°08'1110.6
2015-Mar-31 00:33N 48°53' W 123°19'2 2.3
2015-Mar-30 23:33N 48°50' W 123°20'3 3.1
2015-Mar-30 22:32N 48°50' W 123°25'0 0.1
2015-Mar-30 20:03N 48°50' W 123°25'5 6.8
2015-Mar-30 19:21N 48°48' W 123°19'4 4.9
2015-Mar-30 18:33N 48°52' W 123°20'9 9.3
2015-Mar-30 17:33N 48°58' W 123°10'3 2.6
2015-Mar-30 16:33N 49°00' W 123°08'1010.3
2015-Mar-30 15:33N 48°53' W 123°18'2 2.1
2015-Mar-30 14:29N 48°51' W 123°20'3 3.4
2015-Mar-30 13:33N 48°49' W 123°24'3 0.4
2015-Mar-30 05:33N 48°52' W 123°21'1212.1
2015-Mar-30 04:33N 49°00' W 123°08'10 9.8
2015-Mar-30 03:34N 48°53' W 123°18'1 0.9
2015-Mar-30 02:34N 48°52' W 123°18'1110.7
2015-Mar-30 01:33N 49°00' W 123°08'8 7.8
2015-Mar-30 00:33N 48°54' W 123°15'5 3.3
2015-Mar-29 23:08N 48°51' W 123°20'3 1.6
2015-Mar-29 21:03N 48°50' W 123°25'4 5.7
2015-Mar-29 20:17N 48°48' W 123°20'4 5.3
2015-Mar-29 19:33N 48°52' W 123°21'8 8.0
2015-Mar-29 18:33N 48°58' W 123°13'4 4.2
2015-Mar-29 17:34N 49°00' W 123°08'10 9.6
2015-Mar-29 16:33N 48°53' W 123°17'3 2.5
2015-Mar-29 15:29N 48°51' W 123°20'0 0.0
2015-Mar-29 05:26N 48°51' W 123°20'3 3.2
2015-Mar-29 04:33N 48°53' W 123°18'10 9.6
2015-Mar-29 03:33N 49°00' W 123°08'0 0.0
2015-Mar-29 02:33N 49°00' W 123°08'0 0.2
2015-Mar-29 01:34N 49°00' W 123°08'1010.3
2015-Mar-29 00:33N 48°53' W 123°19'4 4.4
2015-Mar-28 23:33N 48°48' W 123°20'4 1.4
2015-Mar-28 20:30N 48°50' W 123°25'1112.1
2015-Mar-28 19:34N 48°58' W 123°12'1 1.2
2015-Mar-28 18:33N 48°58' W 123°10'10 9.5
2015-Mar-28 17:33N 48°51' W 123°20'2 1.9
2015-Mar-28 16:33N 48°53' W 123°19'1110.6
2015-Mar-28 15:33N 49°00' W 123°08'5 4.5
2015-Mar-28 14:34N 48°56' W 123°11'11 3.7
2015-Mar-28 11:26N 48°51' W 123°27'0 0.0
2015-Mar-28 07:24N 48°51' W 123°27'1 0.7
2015-Mar-28 05:17N 48°50' W 123°25'4 5.2
2015-Mar-28 04:33N 48°48' W 123°20'4 4.4
2015-Mar-28 03:34N 48°53' W 123°19'1010.1
2015-Mar-28 02:34N 48°60' W 123°08'1 0.5
2015-Mar-28 01:34N 49°00' W 123°08'1110.6
2015-Mar-28 00:33N 48°53' W 123°19'2 2.1
2015-Mar-27 23:31N 48°51' W 123°20'3 3.3
2015-Mar-27 22:32N 48°50' W 123°25'4 1.2
2015-Mar-27 19:16N 48°48' W 123°20'4 5.4
2015-Mar-27 18:33N 48°52' W 123°21'9 8.6
2015-Mar-27 17:33N 48°58' W 123°12'3 3.5
2015-Mar-27 16:33N 49°00' W 123°08'10 9.8
2015-Mar-27 15:33N 48°53' W 123°18'3 2.5
2015-Mar-27 14:33N 48°51' W 123°20'4 3.5
2015-Mar-27 13:31N 48°50' W 123°25'2 1.7
2015-Mar-27 12:31N 48°51' W 123°27'1 0.2
2015-Mar-27 05:09N 48°50' W 123°25'5 7.4
2015-Mar-27 04:32N 48°48' W 123°20'5 4.8
2015-Mar-27 03:33N 48°53' W 123°19'1110.6
2015-Mar-27 02:33N 49°00' W 123°08'8 7.6
2015-Mar-27 01:33N 48°54' W 123°15'5 4.2
2015-Mar-27 00:25N 48°51' W 123°20'3 3.7
2015-Mar-26 23:32N 48°50' W 123°25'4 1.1
2015-Mar-26 19:22N 48°48' W 123°19'4 4.5
2015-Mar-26 18:33N 48°52' W 123°20'9 8.5
2015-Mar-26 17:33N 48°58' W 123°11'3 3.2
2015-Mar-26 16:33N 49°00' W 123°08'1110.7
2015-Mar-26 15:33N 48°53' W 123°19'3 3.0
2015-Mar-26 14:32N 48°50' W 123°20'3 0.4
2015-Mar-26 05:07N 48°50' W 123°25'4 6.5
2015-Mar-26 04:27N 48°48' W 123°20'5 5.2
2015-Mar-26 03:33N 48°53' W 123°18'9 8.9
2015-Mar-26 02:33N 48°59' W 123°10'2 1.6
2015-Mar-26 01:33N 49°00' W 123°08'1110.6
2015-Mar-26 00:33N 48°53' W 123°19'2 2.2
2015-Mar-25 23:30N 48°50' W 123°20'3 3.2
2015-Mar-25 22:29N 48°50' W 123°25'4 1.3
2015-Mar-25 19:14N 48°48' W 123°20'4 5.5
2015-Mar-25 18:32N 48°52' W 123°20'8 8.7
2015-Mar-25 17:34N 48°58' W 123°12'4 3.6
2015-Mar-25 16:33N 49°00' W 123°08'1010.2
2015-Mar-25 15:33N 48°53' W 123°18'3 2.6
2015-Mar-25 14:27N 48°50' W 123°20'3 3.2
2015-Mar-25 13:28N 48°50' W 123°25'1 0.2
2015-Mar-25 05:24N 48°51' W 123°27'6 7.0
2015-Mar-25 04:32N 48°48' W 123°19'4 4.4
2015-Mar-25 03:34N 48°52' W 123°18'9 9.1
2015-Mar-25 02:33N 48°59' W 123°09'2 1.6
2015-Mar-25 01:33N 49°00' W 123°08'1110.7
2015-Mar-25 00:33N 48°53' W 123°19'2 1.8
2015-Mar-24 23:26N 48°51' W 123°20'3 3.6
2015-Mar-24 22:29N 48°50' W 123°25'5 1.5
2015-Mar-24 19:22N 48°48' W 123°19'4 4.7
2015-Mar-24 18:33N 48°52' W 123°20'8 8.0
2015-Mar-24 17:33N 48°57' W 123°12'4 4.0
2015-Mar-24 16:33N 49°00' W 123°08'1110.5
2015-Mar-24 15:33N 48°53' W 123°18'2 2.0
2015-Mar-24 14:32N 48°51' W 123°20'3 3.4
2015-Mar-24 13:31N 48°50' W 123°25'2 0.2
2015-Mar-24 05:20N 48°51' W 123°27'6 7.5
2015-Mar-24 04:32N 48°48' W 123°19'4 4.4
2015-Mar-24 03:33N 48°52' W 123°18'9 8.6
2015-Mar-24 02:33N 48°59' W 123°10'2 2.0
2015-Mar-24 01:33N 49°00' W 123°08'1110.7
2015-Mar-24 00:33N 48°53' W 123°19'3 2.1
2015-Mar-23 23:21N 48°50' W 123°20'2 0.6
2015-Mar-23 19:31N 48°48' W 123°19'4 3.9
2015-Mar-23 18:32N 48°52' W 123°20'9 9.0
2015-Mar-23 17:34N 48°58' W 123°11'3 3.3
2015-Mar-23 16:33N 49°00' W 123°08'1110.6
2015-Mar-23 15:33N 48°53' W 123°19'2 2.3
2015-Mar-23 14:29N 48°50' W 123°20'3 3.4
2015-Mar-23 13:32N 48°50' W 123°25'5 0.6
2015-Mar-23 05:33N 48°52' W 123°18'1111.0
2015-Mar-23 04:33N 49°00' W 123°08'1111.0
2015-Mar-23 03:33N 48°52' W 123°18'0 0.5
2015-Mar-23 02:33N 48°52' W 123°19'1111.5
2015-Mar-23 01:33N 49°00' W 123°08'6 6.0
2015-Mar-23 00:34N 48°56' W 123°14'  
Track history (hours):
 
Tides and Currents Weather Stations Pressure Air Temp Water Temp Dewpoint Dewpoint Depression Visibility Wind Speed Wind Dir Waves Ship Positions

Queen Of Nanaimo

Last reported at 2015-Apr-01 23:33 UTC. Time now 2015-Apr-02 00:14 UTC.
Position N 48°51' W 123°20'.

Length 130 m; draft 4 m.

Type: Ship. MMSI: 316001254.

Date/timePositionNaut miles runAvg speedWind from/ knotsBaromVisibWave heightAir tempDewpointWater temp
2015-Apr-01 23:33N 48°51' W 123°20'3 0.7
2015-Apr-01 19:31N 48°48' W 123°19'4 4.0
2015-Apr-01 18:33N 48°52' W 123°21'8 8.0
2015-Apr-01 17:33N 48°58' W 123°13'4 4.3
2015-Apr-01 16:33N 49°00' W 123°08'10 9.9
2015-Apr-01 15:33N 48°53' W 123°18'3 2.4
2015-Apr-01 14:30N 48°51' W 123°20'3 3.5
2015-Apr-01 13:34N 48°50' W 123°25'1 0.1
2015-Apr-01 05:13N 48°51' W 123°26'5 7.7
2015-Apr-01 04:32N 48°48' W 123°19'5 4.9
2015-Apr-01 03:33N 48°53' W 123°19'9 9.1
2015-Apr-01 02:33N 48°59' W 123°09'1 1.4
2015-Apr-01 01:33N 49°00' W 123°08'1110.5
2015-Apr-01 00:33N 48°53' W 123°19'2 2.0
2015-Mar-31 23:33N 48°51' W 123°20'4 3.2
2015-Mar-31 22:26N 48°50' W 123°25'5 1.6
2015-Mar-31 19:33N 48°48' W 123°19'4 3.8
2015-Mar-31 18:33N 48°52' W 123°21'8 7.8
2015-Mar-31 17:33N 48°57' W 123°13'4 4.3
2015-Mar-31 16:34N 49°00' W 123°08'10 9.8
2015-Mar-31 15:33N 48°53' W 123°18'3 2.5
2015-Mar-31 14:29N 48°51' W 123°20'3 3.3
2015-Mar-31 13:30N 48°50' W 123°25'2 0.3
2015-Mar-31 06:27N 48°51' W 123°27'6 2.7
2015-Mar-31 04:23N 48°48' W 123°20'4 5.4
2015-Mar-31 03:33N 48°52' W 123°18'9 9.2
2015-Mar-31 02:34N 48°59' W 123°10'1 1.5
2015-Mar-31 01:33N 49°00' W 123°08'1110.6
2015-Mar-31 00:33N 48°53' W 123°19'2 2.3
2015-Mar-30 23:33N 48°50' W 123°20'3 3.1
2015-Mar-30 22:32N 48°50' W 123°25'0 0.1
2015-Mar-30 20:03N 48°50' W 123°25'5 6.8
2015-Mar-30 19:21N 48°48' W 123°19'4 4.9
2015-Mar-30 18:33N 48°52' W 123°20'9 9.3
2015-Mar-30 17:33N 48°58' W 123°10'3 2.6
2015-Mar-30 16:33N 49°00' W 123°08'1010.3
2015-Mar-30 15:33N 48°53' W 123°18'2 2.1
2015-Mar-30 14:29N 48°51' W 123°20'3 3.4
2015-Mar-30 13:33N 48°49' W 123°24'3 0.4
2015-Mar-30 05:33N 48°52' W 123°21'1212.1
2015-Mar-30 04:33N 49°00' W 123°08'10 9.8
2015-Mar-30 03:34N 48°53' W 123°18'1 0.9
2015-Mar-30 02:34N 48°52' W 123°18'1110.7
2015-Mar-30 01:33N 49°00' W 123°08'8 7.8
2015-Mar-30 00:33N 48°54' W 123°15'5 3.3
2015-Mar-29 23:08N 48°51' W 123°20'3 1.6
2015-Mar-29 21:03N 48°50' W 123°25'4 5.7
2015-Mar-29 20:17N 48°48' W 123°20'4 5.3
2015-Mar-29 19:33N 48°52' W 123°21'8 8.0
2015-Mar-29 18:33N 48°58' W 123°13'4 4.2
2015-Mar-29 17:34N 49°00' W 123°08'10 9.6
2015-Mar-29 16:33N 48°53' W 123°17'3 2.5
2015-Mar-29 15:29N 48°51' W 123°20'0 0.0
2015-Mar-29 05:26N 48°51' W 123°20'3 3.2
2015-Mar-29 04:33N 48°53' W 123°18'10 9.6
2015-Mar-29 03:33N 49°00' W 123°08'0 0.0
2015-Mar-29 02:33N 49°00' W 123°08'0 0.2
2015-Mar-29 01:34N 49°00' W 123°08'1010.3
2015-Mar-29 00:33N 48°53' W 123°19'4 4.4
2015-Mar-28 23:33N 48°48' W 123°20'4 1.4
2015-Mar-28 20:30N 48°50' W 123°25'1112.1
2015-Mar-28 19:34N 48°58' W 123°12'1 1.2
2015-Mar-28 18:33N 48°58' W 123°10'10 9.5
2015-Mar-28 17:33N 48°51' W 123°20'2 1.9
2015-Mar-28 16:33N 48°53' W 123°19'1110.6
2015-Mar-28 15:33N 49°00' W 123°08'5 4.5
2015-Mar-28 14:34N 48°56' W 123°11'11 3.7
2015-Mar-28 11:26N 48°51' W 123°27'0 0.0
2015-Mar-28 07:24N 48°51' W 123°27'1 0.7
2015-Mar-28 05:17N 48°50' W 123°25'4 5.2
2015-Mar-28 04:33N 48°48' W 123°20'4 4.4
2015-Mar-28 03:34N 48°53' W 123°19'1010.1
2015-Mar-28 02:34N 48°60' W 123°08'1 0.5
2015-Mar-28 01:34N 49°00' W 123°08'1110.6
2015-Mar-28 00:33N 48°53' W 123°19'2 2.1
2015-Mar-27 23:31N 48°51' W 123°20'3 3.3
2015-Mar-27 22:32N 48°50' W 123°25'4 1.2
2015-Mar-27 19:16N 48°48' W 123°20'4 5.4
2015-Mar-27 18:33N 48°52' W 123°21'9 8.6
2015-Mar-27 17:33N 48°58' W 123°12'3 3.5
2015-Mar-27 16:33N 49°00' W 123°08'10 9.8
2015-Mar-27 15:33N 48°53' W 123°18'3 2.5
2015-Mar-27 14:33N 48°51' W 123°20'4 3.5
2015-Mar-27 13:31N 48°50' W 123°25'2 1.7
2015-Mar-27 12:31N 48°51' W 123°27'1 0.2
2015-Mar-27 05:09N 48°50' W 123°25'5 7.4
2015-Mar-27 04:32N 48°48' W 123°20'5 4.8
2015-Mar-27 03:33N 48°53' W 123°19'1110.6
2015-Mar-27 02:33N 49°00' W 123°08'8 7.6
2015-Mar-27 01:33N 48°54' W 123°15'5 4.2
2015-Mar-27 00:25N 48°51' W 123°20'3 3.7
2015-Mar-26 23:32N 48°50' W 123°25'4 1.1
2015-Mar-26 19:22N 48°48' W 123°19'4 4.5
2015-Mar-26 18:33N 48°52' W 123°20'9 8.5
2015-Mar-26 17:33N 48°58' W 123°11'3 3.2
2015-Mar-26 16:33N 49°00' W 123°08'1110.7
2015-Mar-26 15:33N 48°53' W 123°19'3 3.0
2015-Mar-26 14:32N 48°50' W 123°20'3 0.4
2015-Mar-26 05:07N 48°50' W 123°25'4 6.5
2015-Mar-26 04:27N 48°48' W 123°20'5 5.2
2015-Mar-26 03:33N 48°53' W 123°18'9 8.9
2015-Mar-26 02:33N 48°59' W 123°10'2 1.6
2015-Mar-26 01:33N 49°00' W 123°08'1110.6
2015-Mar-26 00:33N 48°53' W 123°19'2 2.2
2015-Mar-25 23:30N 48°50' W 123°20'3 3.2
2015-Mar-25 22:29N 48°50' W 123°25'4 1.3
2015-Mar-25 19:14N 48°48' W 123°20'4 5.5
2015-Mar-25 18:32N 48°52' W 123°20'8 8.7
2015-Mar-25 17:34N 48°58' W 123°12'4 3.6
2015-Mar-25 16:33N 49°00' W 123°08'1010.2
2015-Mar-25 15:33N 48°53' W 123°18'3 2.6
2015-Mar-25 14:27N 48°50' W 123°20'3 3.2
2015-Mar-25 13:28N 48°50' W 123°25'1 0.2
2015-Mar-25 05:24N 48°51' W 123°27'6 7.0
2015-Mar-25 04:32N 48°48' W 123°19'4 4.4
2015-Mar-25 03:34N 48°52' W 123°18'9 9.1
2015-Mar-25 02:33N 48°59' W 123°09'2 1.6
2015-Mar-25 01:33N 49°00' W 123°08'1110.7
2015-Mar-25 00:33N 48°53' W 123°19'2 1.8
2015-Mar-24 23:26N 48°51' W 123°20'3 3.6
2015-Mar-24 22:29N 48°50' W 123°25'5 1.5
2015-Mar-24 19:22N 48°48' W 123°19'4 4.7
2015-Mar-24 18:33N 48°52' W 123°20'8 8.0
2015-Mar-24 17:33N 48°57' W 123°12'4 4.0
2015-Mar-24 16:33N 49°00' W 123°08'1110.5
2015-Mar-24 15:33N 48°53' W 123°18'2 2.0
2015-Mar-24 14:32N 48°51' W 123°20'3 3.4
2015-Mar-24 13:31N 48°50' W 123°25'2 0.2
2015-Mar-24 05:20N 48°51' W 123°27'6 7.5
2015-Mar-24 04:32N 48°48' W 123°19'4 4.4
2015-Mar-24 03:33N 48°52' W 123°18'9 8.6
2015-Mar-24 02:33N 48°59' W 123°10'2 2.0
2015-Mar-24 01:33N 49°00' W 123°08'1110.7
2015-Mar-24 00:33N 48°53' W 123°19'3 2.1
2015-Mar-23 23:21N 48°50' W 123°20'2 0.6
2015-Mar-23 19:31N 48°48' W 123°19'4 3.9
2015-Mar-23 18:32N 48°52' W 123°20'9 9.0
2015-Mar-23 17:34N 48°58' W 123°11'3 3.3
2015-Mar-23 16:33N 49°00' W 123°08'1110.6
2015-Mar-23 15:33N 48°53' W 123°19'2 2.3
2015-Mar-23 14:29N 48°50' W 123°20'3 3.4
2015-Mar-23 13:32N 48°50' W 123°25'5 0.6
2015-Mar-23 05:33N 48°52' W 123°18'1111.0
2015-Mar-23 04:33N 49°00' W 123°08'1111.0
2015-Mar-23 03:33N 48°52' W 123°18'0 0.5
2015-Mar-23 02:33N 48°52' W 123°19'1111.5
2015-Mar-23 01:33N 49°00' W 123°08'6 6.0
2015-Mar-23 00:34N 48°56' W 123°14'  

Dump ship's entire track history